Cold Springs, Nevada
Current Conditions -  °F | °C
As of 2:55 PM on Thursday 20 Nov 2014 (Local Time) from KRTS Reporting Station
Scattered Clouds Scattered Clouds  
Wind Chill: 44°   Ceiling: Unl
Heat Index: 48°   Visibility: 10mi
Dew Point: 32°   Wind: 10mph
Humidity: 54%   Direction: 260°W
Pressure: 29.96"   Gusts: NA
Location:  39.7378°N, 119.889°W
Report Text: KRTS 202255Z AUTO 26009KT 10SM SCT060 09/00 A2996 RMK AO2
Loading
Personal Weather Stations






























Interactive Weather Map New forecast layout! Learn more

10-Day Weather Forecast

Advertisements
Track Severe Weather on mobile